Klosterneuburg, Austria
Current Conditions -  °F | °C
As of 3:50 PM on Wednesday 28 Jan 2015 (Local Time) from LOXT Reporting Station
Broken Clouds Broken Clouds  
Wind Chill: 30°   Ceiling: 5000
Heat Index: 39°   Visibility: 19mi
Dew Point: 32°   Wind: 16mph
Humidity: 75%   Direction: 270°W
Pressure: 29.94"   Gusts: NA
Location:  48.31°N, 16.31°E
Report Text: LOXT 281350Z 27014KT 30KM FEW032CU BKN050SC 04/M00 Q1014 NOSIG RMK BKN
Loading
Personal Weather Stations






























Interactive Weather Map New forecast layout! Learn more

10-Day Weather Forecast

Advertisements
Track Severe Weather on mobile